sensor_id;sensor_type;location;lat;lon;timestamp;temperature;humidity
80232;DHT22;74189;42.124;24.752;2024-02-23T00:01:51;8.50;67.40
80232;DHT22;74189;42.124;24.752;2024-02-23T00:04:18;8.50;66.70
80232;DHT22;74189;42.124;24.752;2024-02-23T00:06:47;8.70;66.30
80232;DHT22;74189;42.124;24.752;2024-02-23T00:09:13;8.60;66.50
80232;DHT22;74189;42.124;24.752;2024-02-23T00:11:40;8.70;66.40
80232;DHT22;74189;42.124;24.752;2024-02-23T00:14:11;8.70;66.10
80232;DHT22;74189;42.124;24.752;2024-02-23T00:16:40;8.70;66.00
80232;DHT22;74189;42.124;24.752;2024-02-23T00:19:10;8.80;65.40
80232;DHT22;74189;42.124;24.752;2024-02-23T00:21:37;8.80;64.90
80232;DHT22;74189;42.124;24.752;2024-02-23T00:24:04;8.80;64.90
80232;DHT22;74189;42.124;24.752;2024-02-23T00:26:31;8.70;65.70
80232;DHT22;74189;42.124;24.752;2024-02-23T00:28:57;8.60;65.90
80232;DHT22;74189;42.124;24.752;2024-02-23T00:31:23;8.50;65.80
80232;DHT22;74189;42.124;24.752;2024-02-23T00:33:50;8.50;66.00
80232;DHT22;74189;42.124;24.752;2024-02-23T00:36:16;8.60;65.20
80232;DHT22;74189;42.124;24.752;2024-02-23T00:38:42;8.50;65.60
80232;DHT22;74189;42.124;24.752;2024-02-23T00:41:09;8.40;66.00
80232;DHT22;74189;42.124;24.752;2024-02-23T00:43:39;8.20;66.60
80232;DHT22;74189;42.124;24.752;2024-02-23T00:46:06;8.30;66.80
80232;DHT22;74189;42.124;24.752;2024-02-23T00:48:33;8.20;66.90
80232;DHT22;74189;42.124;24.752;2024-02-23T00:50:59;8.30;66.20
80232;DHT22;74189;42.124;24.752;2024-02-23T00:53:26;8.10;66.70
80232;DHT22;74189;42.124;24.752;2024-02-23T00:55:52;8.10;66.70
80232;DHT22;74189;42.124;24.752;2024-02-23T00:58:21;7.80;67.70
80232;DHT22;74189;42.124;24.752;2024-02-23T01:00:47;7.80;68.20
80232;DHT22;74189;42.124;24.752;2024-02-23T01:03:13;7.90;67.50
80232;DHT22;74189;42.124;24.752;2024-02-23T01:05:40;8.00;67.30
80232;DHT22;74189;42.124;24.752;2024-02-23T01:08:08;7.90;67.50
80232;DHT22;74189;42.124;24.752;2024-02-23T01:10:35;7.70;67.60
80232;DHT22;74189;42.124;24.752;2024-02-23T01:13:01;7.70;68.30
80232;DHT22;74189;42.124;24.752;2024-02-23T01:15:27;7.80;67.70
80232;DHT22;74189;42.124;24.752;2024-02-23T01:17:56;7.80;67.70
80232;DHT22;74189;42.124;24.752;2024-02-23T01:20:23;7.80;68.10
80232;DHT22;74189;42.124;24.752;2024-02-23T01:22:50;7.90;67.40
80232;DHT22;74189;42.124;24.752;2024-02-23T01:25:16;7.90;67.10
80232;DHT22;74189;42.124;24.752;2024-02-23T01:27:43;7.80;67.80
80232;DHT22;74189;42.124;24.752;2024-02-23T01:30:10;7.90;67.70
80232;DHT22;74189;42.124;24.752;2024-02-23T01:32:37;7.80;67.40
80232;DHT22;74189;42.124;24.752;2024-02-23T01:35:08;7.90;66.60
80232;DHT22;74189;42.124;24.752;2024-02-23T01:37:34;7.80;66.70
80232;DHT22;74189;42.124;24.752;2024-02-23T01:40:01;7.80;66.90
80232;DHT22;74189;42.124;24.752;2024-02-23T01:42:27;7.90;66.90
80232;DHT22;74189;42.124;24.752;2024-02-23T01:44:53;7.90;67.30
80232;DHT22;74189;42.124;24.752;2024-02-23T01:47:26;7.80;66.80
80232;DHT22;74189;42.124;24.752;2024-02-23T01:49:53;7.80;67.10
80232;DHT22;74189;42.124;24.752;2024-02-23T01:52:21;7.90;66.60
80232;DHT22;74189;42.124;24.752;2024-02-23T01:54:47;7.90;66.60
80232;DHT22;74189;42.124;24.752;2024-02-23T01:57:14;7.80;66.80
80232;DHT22;74189;42.124;24.752;2024-02-23T01:59:41;7.80;67.10
80232;DHT22;74189;42.124;24.752;2024-02-23T02:02:08;7.70;67.10
80232;DHT22;74189;42.124;24.752;2024-02-23T02:04:34;7.60;67.20
80232;DHT22;74189;42.124;24.752;2024-02-23T02:07:01;7.70;67.40
80232;DHT22;74189;42.124;24.752;2024-02-23T02:09:27;7.80;67.40
80232;DHT22;74189;42.124;24.752;2024-02-23T02:11:54;7.70;67.20
80232;DHT22;74189;42.124;24.752;2024-02-23T02:14:20;7.70;67.10
80232;DHT22;74189;42.124;24.752;2024-02-23T02:16:46;7.60;66.50
80232;DHT22;74189;42.124;24.752;2024-02-23T02:19:13;7.50;66.80
80232;DHT22;74189;42.124;24.752;2024-02-23T02:21:40;7.40;67.50
80232;DHT22;74189;42.124;24.752;2024-02-23T02:24:07;7.60;67.30
80232;DHT22;74189;42.124;24.752;2024-02-23T02:26:35;7.60;66.90
80232;DHT22;74189;42.124;24.752;2024-02-23T02:29:02;7.60;66.40
80232;DHT22;74189;42.124;24.752;2024-02-23T02:31:29;7.50;66.50
80232;DHT22;74189;42.124;24.752;2024-02-23T02:34:03;7.40;66.70
80232;DHT22;74189;42.124;24.752;2024-02-23T02:36:30;7.50;67.10
80232;DHT22;74189;42.124;24.752;2024-02-23T02:38:56;7.60;66.50
80232;DHT22;74189;42.124;24.752;2024-02-23T02:41:24;7.40;66.50
80232;DHT22;74189;42.124;24.752;2024-02-23T02:43:56;7.50;66.40
80232;DHT22;74189;42.124;24.752;2024-02-23T02:46:23;7.30;66.20
80232;DHT22;74189;42.124;24.752;2024-02-23T02:48:49;7.20;66.20
80232;DHT22;74189;42.124;24.752;2024-02-23T02:51:15;7.10;66.20
80232;DHT22;74189;42.124;24.752;2024-02-23T02:53:41;7.10;66.50
80232;DHT22;74189;42.124;24.752;2024-02-23T02:56:08;7.00;66.00
80232;DHT22;74189;42.124;24.752;2024-02-23T02:58:34;7.10;65.20
80232;DHT22;74189;42.124;24.752;2024-02-23T03:01:00;6.90;66.20
80232;DHT22;74189;42.124;24.752;2024-02-23T03:03:27;7.00;66.40
80232;DHT22;74189;42.124;24.752;2024-02-23T03:05:55;6.90;66.20
80232;DHT22;74189;42.124;24.752;2024-02-23T03:08:21;6.70;66.20
80232;DHT22;74189;42.124;24.752;2024-02-23T03:10:48;6.60;67.50
80232;DHT22;74189;42.124;24.752;2024-02-23T03:13:14;6.80;67.00
80232;DHT22;74189;42.124;24.752;2024-02-23T03:15:40;6.70;66.60
80232;DHT22;74189;42.124;24.752;2024-02-23T03:18:07;6.60;67.00
80232;DHT22;74189;42.124;24.752;2024-02-23T03:20:35;6.70;66.60
80232;DHT22;74189;42.124;24.752;2024-02-23T03:23:01;6.70;66.90
80232;DHT22;74189;42.124;24.752;2024-02-23T03:25:29;6.60;66.60
80232;DHT22;74189;42.124;24.752;2024-02-23T03:27:55;6.60;67.20
80232;DHT22;74189;42.124;24.752;2024-02-23T03:30:22;6.70;66.60
80232;DHT22;74189;42.124;24.752;2024-02-23T03:32:48;6.80;66.50
80232;DHT22;74189;42.124;24.752;2024-02-23T03:35:15;6.70;66.10
80232;DHT22;74189;42.124;24.752;2024-02-23T03:37:41;6.40;68.20
80232;DHT22;74189;42.124;24.752;2024-02-23T03:40:08;6.40;67.90
80232;DHT22;74189;42.124;24.752;2024-02-23T03:42:36;6.40;67.90
80232;DHT22;74189;42.124;24.752;2024-02-23T03:45:05;6.40;68.10
80232;DHT22;74189;42.124;24.752;2024-02-23T03:47:38;6.40;67.90
80232;DHT22;74189;42.124;24.752;2024-02-23T03:50:08;6.50;68.00
80232;DHT22;74189;42.124;24.752;2024-02-23T03:52:38;6.60;67.20
80232;DHT22;74189;42.124;24.752;2024-02-23T03:55:04;6.50;67.80
80232;DHT22;74189;42.124;24.752;2024-02-23T03:57:31;6.70;67.40
80232;DHT22;74189;42.124;24.752;2024-02-23T03:59:57;6.50;67.30
80232;DHT22;74189;42.124;24.752;2024-02-23T04:02:24;6.50;67.90
80232;DHT22;74189;42.124;24.752;2024-02-23T04:04:50;6.50;67.60
80232;DHT22;74189;42.124;24.752;2024-02-23T04:07:17;6.50;68.70
80232;DHT22;74189;42.124;24.752;2024-02-23T04:09:46;6.40;67.40
80232;DHT22;74189;42.124;24.752;2024-02-23T04:12:21;6.30;68.60
80232;DHT22;74189;42.124;24.752;2024-02-23T04:14:50;6.40;68.50
80232;DHT22;74189;42.124;24.752;2024-02-23T04:17:16;6.50;67.80
80232;DHT22;74189;42.124;24.752;2024-02-23T04:19:43;6.30;67.90
80232;DHT22;74189;42.124;24.752;2024-02-23T04:22:09;6.30;67.90
80232;DHT22;74189;42.124;24.752;2024-02-23T04:24:40;6.30;68.30
80232;DHT22;74189;42.124;24.752;2024-02-23T04:27:07;6.30;68.60
80232;DHT22;74189;42.124;24.752;2024-02-23T04:29:34;6.30;68.80
80232;DHT22;74189;42.124;24.752;2024-02-23T04:32:01;6.30;68.80
80232;DHT22;74189;42.124;24.752;2024-02-23T04:34:28;6.20;68.90
80232;DHT22;74189;42.124;24.752;2024-02-23T04:36:54;6.40;68.50
80232;DHT22;74189;42.124;24.752;2024-02-23T04:39:21;6.50;67.80
80232;DHT22;74189;42.124;24.752;2024-02-23T04:41:47;6.20;68.40
80232;DHT22;74189;42.124;24.752;2024-02-23T04:44:14;6.30;68.80
80232;DHT22;74189;42.124;24.752;2024-02-23T04:46:40;6.40;68.20
80232;DHT22;74189;42.124;24.752;2024-02-23T04:49:06;6.40;68.30
80232;DHT22;74189;42.124;24.752;2024-02-23T04:51:32;6.10;68.30
80232;DHT22;74189;42.124;24.752;2024-02-23T04:53:59;5.70;69.90
80232;DHT22;74189;42.124;24.752;2024-02-23T04:56:25;5.70;70.30
80232;DHT22;74189;42.124;24.752;2024-02-23T04:58:51;5.70;70.50
80232;DHT22;74189;42.124;24.752;2024-02-23T05:01:17;5.70;70.90
80232;DHT22;74189;42.124;24.752;2024-02-23T05:03:44;5.60;70.80
80232;DHT22;74189;42.124;24.752;2024-02-23T05:06:10;5.60;71.40
80232;DHT22;74189;42.124;24.752;2024-02-23T05:08:38;5.50;71.80
80232;DHT22;74189;42.124;24.752;2024-02-23T05:11:04;5.50;72.10
80232;DHT22;74189;42.124;24.752;2024-02-23T05:13:30;5.50;72.60
80232;DHT22;74189;42.124;24.752;2024-02-23T05:15:57;5.50;72.10
80232;DHT22;74189;42.124;24.752;2024-02-23T05:18:23;5.50;72.50
80232;DHT22;74189;42.124;24.752;2024-02-23T05:20:50;5.60;72.00
80232;DHT22;74189;42.124;24.752;2024-02-23T05:23:16;5.60;72.10
80232;DHT22;74189;42.124;24.752;2024-02-23T05:25:42;5.70;71.50
80232;DHT22;74189;42.124;24.752;2024-02-23T05:28:08;5.80;70.70
80232;DHT22;74189;42.124;24.752;2024-02-23T05:30:35;5.80;70.40
80232;DHT22;74189;42.124;24.752;2024-02-23T05:33:01;5.80;70.80
80232;DHT22;74189;42.124;24.752;2024-02-23T05:35:29;5.70;70.70
80232;DHT22;74189;42.124;24.752;2024-02-23T05:37:56;5.70;70.90
80232;DHT22;74189;42.124;24.752;2024-02-23T05:40:22;5.80;70.60
80232;DHT22;74189;42.124;24.752;2024-02-23T05:42:48;5.80;70.10
80232;DHT22;74189;42.124;24.752;2024-02-23T05:45:14;5.80;70.80
80232;DHT22;74189;42.124;24.752;2024-02-23T05:47:41;5.70;70.70
80232;DHT22;74189;42.124;24.752;2024-02-23T05:50:10;5.50;71.20
80232;DHT22;74189;42.124;24.752;2024-02-23T05:52:37;5.60;71.40
80232;DHT22;74189;42.124;24.752;2024-02-23T05:55:04;5.60;71.60
80232;DHT22;74189;42.124;24.752;2024-02-23T05:57:30;5.70;71.70
80232;DHT22;74189;42.124;24.752;2024-02-23T05:59:56;5.80;71.60
80232;DHT22;74189;42.124;24.752;2024-02-23T06:02:23;6.00;70.70
80232;DHT22;74189;42.124;24.752;2024-02-23T06:04:49;6.10;70.60
80232;DHT22;74189;42.124;24.752;2024-02-23T06:07:15;6.10;70.30
80232;DHT22;74189;42.124;24.752;2024-02-23T06:09:43;6.20;70.40
80232;DHT22;74189;42.124;24.752;2024-02-23T06:12:09;6.40;68.80
80232;DHT22;74189;42.124;24.752;2024-02-23T06:14:36;6.30;69.10
80232;DHT22;74189;42.124;24.752;2024-02-23T06:17:02;6.40;69.30
80232;DHT22;74189;42.124;24.752;2024-02-23T06:19:29;6.20;69.20
80232;DHT22;74189;42.124;24.752;2024-02-23T06:21:56;6.20;69.90
80232;DHT22;74189;42.124;24.752;2024-02-23T06:24:22;6.20;69.40
80232;DHT22;74189;42.124;24.752;2024-02-23T06:26:48;6.30;68.70
80232;DHT22;74189;42.124;24.752;2024-02-23T06:29:15;6.20;68.90
80232;DHT22;74189;42.124;24.752;2024-02-23T06:31:41;6.20;68.60
80232;DHT22;74189;42.124;24.752;2024-02-23T06:34:08;6.20;68.70
80232;DHT22;74189;42.124;24.752;2024-02-23T06:36:36;6.20;68.50
80232;DHT22;74189;42.124;24.752;2024-02-23T06:39:03;6.00;69.30
80232;DHT22;74189;42.124;24.752;2024-02-23T06:41:30;6.20;69.20
80232;DHT22;74189;42.124;24.752;2024-02-23T06:43:57;6.20;68.30
80232;DHT22;74189;42.124;24.752;2024-02-23T06:46:23;5.90;69.40
80232;DHT22;74189;42.124;24.752;2024-02-23T06:48:49;5.80;70.50
80232;DHT22;74189;42.124;24.752;2024-02-23T06:51:16;5.90;71.30
80232;DHT22;74189;42.124;24.752;2024-02-23T06:53:42;6.10;69.80
80232;DHT22;74189;42.124;24.752;2024-02-23T06:56:09;6.20;68.70
80232;DHT22;74189;42.124;24.752;2024-02-23T06:58:35;6.40;68.70
80232;DHT22;74189;42.124;24.752;2024-02-23T07:01:01;6.60;68.40
80232;DHT22;74189;42.124;24.752;2024-02-23T07:03:29;6.80;67.80
80232;DHT22;74189;42.124;24.752;2024-02-23T07:05:56;7.00;67.10
80232;DHT22;74189;42.124;24.752;2024-02-23T07:08:22;7.20;66.50
80232;DHT22;74189;42.124;24.752;2024-02-23T07:10:48;7.20;66.00
80232;DHT22;74189;42.124;24.752;2024-02-23T07:13:15;7.40;65.80
80232;DHT22;74189;42.124;24.752;2024-02-23T07:15:43;7.50;65.30
80232;DHT22;74189;42.124;24.752;2024-02-23T07:18:09;7.70;64.30
80232;DHT22;74189;42.124;24.752;2024-02-23T07:20:38;7.60;64.30
80232;DHT22;74189;42.124;24.752;2024-02-23T07:23:05;7.70;64.80
80232;DHT22;74189;42.124;24.752;2024-02-23T07:25:32;7.70;64.30
80232;DHT22;74189;42.124;24.752;2024-02-23T07:27:58;7.80;64.20
80232;DHT22;74189;42.124;24.752;2024-02-23T07:30:24;8.00;63.60
80232;DHT22;74189;42.124;24.752;2024-02-23T07:32:51;8.30;63.60
80232;DHT22;74189;42.124;24.752;2024-02-23T07:35:17;8.30;62.80
80232;DHT22;74189;42.124;24.752;2024-02-23T07:37:43;8.30;62.80
80232;DHT22;74189;42.124;24.752;2024-02-23T07:40:10;8.50;62.20
80232;DHT22;74189;42.124;24.752;2024-02-23T07:42:36;8.40;62.70
80232;DHT22;74189;42.124;24.752;2024-02-23T07:45:07;8.50;62.50
80232;DHT22;74189;42.124;24.752;2024-02-23T07:47:36;8.70;62.80
80232;DHT22;74189;42.124;24.752;2024-02-23T07:50:02;8.70;62.30
80232;DHT22;74189;42.124;24.752;2024-02-23T07:52:28;8.80;61.90
80232;DHT22;74189;42.124;24.752;2024-02-23T07:54:54;8.70;62.30
80232;DHT22;74189;42.124;24.752;2024-02-23T07:57:21;8.80;62.60
80232;DHT22;74189;42.124;24.752;2024-02-23T07:59:48;9.10;61.80
80232;DHT22;74189;42.124;24.752;2024-02-23T08:02:15;9.10;61.40
80232;DHT22;74189;42.124;24.752;2024-02-23T08:04:41;9.10;62.00
80232;DHT22;74189;42.124;24.752;2024-02-23T08:07:08;9.10;61.50
80232;DHT22;74189;42.124;24.752;2024-02-23T08:09:35;9.10;61.80
80232;DHT22;74189;42.124;24.752;2024-02-23T08:12:01;9.20;62.00
80232;DHT22;74189;42.124;24.752;2024-02-23T08:14:28;9.30;62.00
80232;DHT22;74189;42.124;24.752;2024-02-23T08:16:54;9.30;62.00
80232;DHT22;74189;42.124;24.752;2024-02-23T08:19:20;9.60;63.50
80232;DHT22;74189;42.124;24.752;2024-02-23T08:21:46;9.70;62.60
80232;DHT22;74189;42.124;24.752;2024-02-23T08:24:13;9.80;62.40
80232;DHT22;74189;42.124;24.752;2024-02-23T08:26:39;9.90;62.90
80232;DHT22;74189;42.124;24.752;2024-02-23T08:29:06;9.80;62.70
80232;DHT22;74189;42.124;24.752;2024-02-23T08:31:34;9.70;63.60
80232;DHT22;74189;42.124;24.752;2024-02-23T08:34:01;9.90;62.90
80232;DHT22;74189;42.124;24.752;2024-02-23T08:36:27;9.90;62.50
80232;DHT22;74189;42.124;24.752;2024-02-23T08:38:53;9.90;62.60
80232;DHT22;74189;42.124;24.752;2024-02-23T08:41:20;10.20;61.20
80232;DHT22;74189;42.124;24.752;2024-02-23T08:43:46;10.30;60.90
80232;DHT22;74189;42.124;24.752;2024-02-23T08:46:12;10.20;61.10
80232;DHT22;74189;42.124;24.752;2024-02-23T08:48:39;10.30;61.40
80232;DHT22;74189;42.124;24.752;2024-02-23T08:51:05;10.30;61.90
80232;DHT22;74189;42.124;24.752;2024-02-23T08:53:31;10.50;61.60
80232;DHT22;74189;42.124;24.752;2024-02-23T08:56:00;10.30;61.40
80232;DHT22;74189;42.124;24.752;2024-02-23T08:58:27;10.40;61.40
80232;DHT22;74189;42.124;24.752;2024-02-23T09:00:53;10.50;61.30
80232;DHT22;74189;42.124;24.752;2024-02-23T09:03:19;10.70;60.70
80232;DHT22;74189;42.124;24.752;2024-02-23T09:05:46;10.80;60.00
80232;DHT22;74189;42.124;24.752;2024-02-23T09:08:14;10.70;60.10
80232;DHT22;74189;42.124;24.752;2024-02-23T09:10:40;10.50;60.90
80232;DHT22;74189;42.124;24.752;2024-02-23T09:13:07;10.50;61.20
80232;DHT22;74189;42.124;24.752;2024-02-23T09:15:51;10.60;61.10
80232;DHT22;74189;42.124;24.752;2024-02-23T09:18:18;10.90;60.00
80232;DHT22;74189;42.124;24.752;2024-02-23T09:20:44;11.30;58.60
80232;DHT22;74189;42.124;24.752;2024-02-23T09:23:10;11.30;58.40
80232;DHT22;74189;42.124;24.752;2024-02-23T09:25:38;11.30;58.50
80232;DHT22;74189;42.124;24.752;2024-02-23T09:28:05;11.30;58.70
80232;DHT22;74189;42.124;24.752;2024-02-23T09:30:31;11.40;58.20
80232;DHT22;74189;42.124;24.752;2024-02-23T09:32:57;11.50;58.00
80232;DHT22;74189;42.124;24.752;2024-02-23T09:35:24;11.50;58.20
80232;DHT22;74189;42.124;24.752;2024-02-23T09:37:50;11.60;58.10
80232;DHT22;74189;42.124;24.752;2024-02-23T09:40:16;11.60;58.30
80232;DHT22;74189;42.124;24.752;2024-02-23T09:42:43;11.40;58.80
80232;DHT22;74189;42.124;24.752;2024-02-23T09:45:15;11.60;58.50
80232;DHT22;74189;42.124;24.752;2024-02-23T09:47:43;11.80;58.10
80232;DHT22;74189;42.124;24.752;2024-02-23T09:50:10;11.90;58.10
80232;DHT22;74189;42.124;24.752;2024-02-23T09:52:38;11.90;57.90
80232;DHT22;74189;42.124;24.752;2024-02-23T09:55:04;12.20;57.00
80232;DHT22;74189;42.124;24.752;2024-02-23T09:57:30;12.30;56.50
80232;DHT22;74189;42.124;24.752;2024-02-23T09:59:57;12.10;56.70
80232;DHT22;74189;42.124;24.752;2024-02-23T10:02:23;12.00;57.80
80232;DHT22;74189;42.124;24.752;2024-02-23T10:04:51;12.20;56.50
80232;DHT22;74189;42.124;24.752;2024-02-23T10:07:19;12.40;55.80
80232;DHT22;74189;42.124;24.752;2024-02-23T10:09:46;12.50;55.60
80232;DHT22;74189;42.124;24.752;2024-02-23T10:12:13;12.60;55.50
80232;DHT22;74189;42.124;24.752;2024-02-23T10:14:42;12.80;54.90
80232;DHT22;74189;42.124;24.752;2024-02-23T10:17:08;12.90;54.20
80232;DHT22;74189;42.124;24.752;2024-02-23T10:19:34;12.90;53.70
80232;DHT22;74189;42.124;24.752;2024-02-23T10:22:01;12.90;53.60
80232;DHT22;74189;42.124;24.752;2024-02-23T10:24:27;13.00;53.80
80232;DHT22;74189;42.124;24.752;2024-02-23T10:26:54;13.10;53.70
80232;DHT22;74189;42.124;24.752;2024-02-23T10:29:21;13.10;53.70
80232;DHT22;74189;42.124;24.752;2024-02-23T10:31:47;13.20;53.60
80232;DHT22;74189;42.124;24.752;2024-02-23T10:34:19;13.10;53.90
80232;DHT22;74189;42.124;24.752;2024-02-23T10:36:46;13.30;54.30
80232;DHT22;74189;42.124;24.752;2024-02-23T10:39:17;13.50;52.80
80232;DHT22;74189;42.124;24.752;2024-02-23T10:41:49;13.60;52.40
80232;DHT22;74189;42.124;24.752;2024-02-23T10:44:20;13.50;51.60
80232;DHT22;74189;42.124;24.752;2024-02-23T10:46:48;13.60;51.60
80232;DHT22;74189;42.124;24.752;2024-02-23T10:49:17;13.80;51.30
80232;DHT22;74189;42.124;24.752;2024-02-23T10:51:46;13.80;50.90
80232;DHT22;74189;42.124;24.752;2024-02-23T10:54:17;13.60;51.50
80232;DHT22;74189;42.124;24.752;2024-02-23T10:56:53;13.50;51.50
80232;DHT22;74189;42.124;24.752;2024-02-23T10:59:21;13.40;52.10
80232;DHT22;74189;42.124;24.752;2024-02-23T11:01:49;13.60;52.00
80232;DHT22;74189;42.124;24.752;2024-02-23T11:04:20;13.60;51.80
80232;DHT22;74189;42.124;24.752;2024-02-23T11:06:56;13.60;51.60
80232;DHT22;74189;42.124;24.752;2024-02-23T11:09:24;13.90;51.10
80232;DHT22;74189;42.124;24.752;2024-02-23T11:11:55;14.10;50.30
80232;DHT22;74189;42.124;24.752;2024-02-23T11:14:38;14.30;50.10
80232;DHT22;74189;42.124;24.752;2024-02-23T11:17:05;14.40;48.60
80232;DHT22;74189;42.124;24.752;2024-02-23T11:19:39;14.20;49.50
80232;DHT22;74189;42.124;24.752;2024-02-23T11:22:11;14.30;49.30
80232;DHT22;74189;42.124;24.752;2024-02-23T11:24:42;14.30;48.70
80232;DHT22;74189;42.124;24.752;2024-02-23T11:27:14;14.10;48.30
80232;DHT22;74189;42.124;24.752;2024-02-23T11:29:43;14.10;48.90
80232;DHT22;74189;42.124;24.752;2024-02-23T11:32:14;14.20;49.30
80232;DHT22;74189;42.124;24.752;2024-02-23T11:34:40;14.30;49.30
80232;DHT22;74189;42.124;24.752;2024-02-23T11:37:18;14.30;48.80
80232;DHT22;74189;42.124;24.752;2024-02-23T11:39:45;14.80;47.60
80232;DHT22;74189;42.124;24.752;2024-02-23T11:42:15;14.80;48.50
80232;DHT22;74189;42.124;24.752;2024-02-23T11:44:41;14.70;48.00
80232;DHT22;74189;42.124;24.752;2024-02-23T11:47:08;15.00;46.80
80232;DHT22;74189;42.124;24.752;2024-02-23T11:49:34;15.00;47.10
80232;DHT22;74189;42.124;24.752;2024-02-23T11:52:01;15.20;46.20
80232;DHT22;74189;42.124;24.752;2024-02-23T11:54:28;15.00;46.60
80232;DHT22;74189;42.124;24.752;2024-02-23T11:56:56;14.80;47.00
80232;DHT22;74189;42.124;24.752;2024-02-23T11:59:25;14.90;46.60
80232;DHT22;74189;42.124;24.752;2024-02-23T12:01:52;14.80;47.00
80232;DHT22;74189;42.124;24.752;2024-02-23T12:04:21;14.70;47.10
80232;DHT22;74189;42.124;24.752;2024-02-23T12:06:47;14.90;47.00
80232;DHT22;74189;42.124;24.752;2024-02-23T12:09:14;15.10;47.00
80232;DHT22;74189;42.124;24.752;2024-02-23T12:11:41;15.00;46.40
80232;DHT22;74189;42.124;24.752;2024-02-23T12:14:08;14.90;47.00
80232;DHT22;74189;42.124;24.752;2024-02-23T12:16:35;15.00;46.80
80232;DHT22;74189;42.124;24.752;2024-02-23T12:19:02;15.40;45.50
80232;DHT22;74189;42.124;24.752;2024-02-23T12:21:35;15.50;45.80
80232;DHT22;74189;42.124;24.752;2024-02-23T12:24:04;15.60;45.20
80232;DHT22;74189;42.124;24.752;2024-02-23T12:26:33;15.70;44.40
80232;DHT22;74189;42.124;24.752;2024-02-23T12:29:03;15.70;44.30
80232;DHT22;74189;42.124;24.752;2024-02-23T12:31:31;15.80;44.10
80232;DHT22;74189;42.124;24.752;2024-02-23T12:33:58;15.90;43.70
80232;DHT22;74189;42.124;24.752;2024-02-23T12:36:24;16.00;43.40
80232;DHT22;74189;42.124;24.752;2024-02-23T12:38:51;15.80;43.80
80232;DHT22;74189;42.124;24.752;2024-02-23T12:41:17;15.60;43.90
80232;DHT22;74189;42.124;24.752;2024-02-23T12:43:43;15.60;44.40
80232;DHT22;74189;42.124;24.752;2024-02-23T12:46:10;15.70;44.90
80232;DHT22;74189;42.124;24.752;2024-02-23T12:48:38;15.80;43.80
80232;DHT22;74189;42.124;24.752;2024-02-23T12:51:05;15.80;43.80
80232;DHT22;74189;42.124;24.752;2024-02-23T12:53:35;15.90;43.70
80232;DHT22;74189;42.124;24.752;2024-02-23T12:56:06;15.90;43.50
80232;DHT22;74189;42.124;24.752;2024-02-23T12:58:38;15.80;43.60
80232;DHT22;74189;42.124;24.752;2024-02-23T13:01:05;15.80;43.80
80232;DHT22;74189;42.124;24.752;2024-02-23T13:03:33;15.80;43.80
80232;DHT22;74189;42.124;24.752;2024-02-23T13:06:04;16.10;43.40
80232;DHT22;74189;42.124;24.752;2024-02-23T13:08:34;16.00;43.00
80232;DHT22;74189;42.124;24.752;2024-02-23T13:11:01;15.80;43.90
80232;DHT22;74189;42.124;24.752;2024-02-23T13:13:27;15.80;43.80
80232;DHT22;74189;42.124;24.752;2024-02-23T13:15:55;15.90;43.40
80232;DHT22;74189;42.124;24.752;2024-02-23T13:18:21;15.80;43.70
80232;DHT22;74189;42.124;24.752;2024-02-23T13:20:48;16.00;43.20
80232;DHT22;74189;42.124;24.752;2024-02-23T13:23:14;16.10;43.40
80232;DHT22;74189;42.124;24.752;2024-02-23T13:25:42;16.20;44.10
80232;DHT22;74189;42.124;24.752;2024-02-23T13:28:08;16.40;42.30
80232;DHT22;74189;42.124;24.752;2024-02-23T13:30:36;16.50;41.80
80232;DHT22;74189;42.124;24.752;2024-02-23T13:33:03;16.70;41.40
80232;DHT22;74189;42.124;24.752;2024-02-23T13:35:29;16.60;41.80
80232;DHT22;74189;42.124;24.752;2024-02-23T13:37:55;16.40;41.90
80232;DHT22;74189;42.124;24.752;2024-02-23T13:40:23;16.60;41.90
80232;DHT22;74189;42.124;24.752;2024-02-23T13:42:50;16.50;41.80
80232;DHT22;74189;42.124;24.752;2024-02-23T13:45:19;16.50;41.90
80232;DHT22;74189;42.124;24.752;2024-02-23T13:50:22;16.50;41.80
80232;DHT22;74189;42.124;24.752;2024-02-23T13:52:49;16.40;41.70
80232;DHT22;74189;42.124;24.752;2024-02-23T13:55:15;16.30;42.10
80232;DHT22;74189;42.124;24.752;2024-02-23T13:57:41;16.40;41.90
80232;DHT22;74189;42.124;24.752;2024-02-23T14:00:08;16.70;41.30
80232;DHT22;74189;42.124;24.752;2024-02-23T14:02:38;17.00;40.80
80232;DHT22;74189;42.124;24.752;2024-02-23T14:05:06;16.80;41.10
80232;DHT22;74189;42.124;24.752;2024-02-23T14:07:34;16.50;41.70
80232;DHT22;74189;42.124;24.752;2024-02-23T14:10:00;16.60;41.80
80232;DHT22;74189;42.124;24.752;2024-02-23T14:12:27;16.50;41.80
80232;DHT22;74189;42.124;24.752;2024-02-23T14:14:53;16.50;42.90
80232;DHT22;74189;42.124;24.752;2024-02-23T14:17:20;16.40;42.10
80232;DHT22;74189;42.124;24.752;2024-02-23T14:19:46;16.50;42.10
80232;DHT22;74189;42.124;24.752;2024-02-23T14:22:12;16.40;42.50
80232;DHT22;74189;42.124;24.752;2024-02-23T14:24:39;16.50;42.40
80232;DHT22;74189;42.124;24.752;2024-02-23T14:27:06;16.30;42.50
80232;DHT22;74189;42.124;24.752;2024-02-23T14:29:33;16.30;42.50
80232;DHT22;74189;42.124;24.752;2024-02-23T14:31:59;16.30;42.90
80232;DHT22;74189;42.124;24.752;2024-02-23T14:34:27;16.70;41.90
80232;DHT22;74189;42.124;24.752;2024-02-23T14:36:53;16.60;41.90
80232;DHT22;74189;42.124;24.752;2024-02-23T14:39:19;16.70;41.90
80232;DHT22;74189;42.124;24.752;2024-02-23T14:41:47;16.90;41.40
80232;DHT22;74189;42.124;24.752;2024-02-23T14:44:14;16.90;41.50
80232;DHT22;74189;42.124;24.752;2024-02-23T14:46:41;16.80;41.50
80232;DHT22;74189;42.124;24.752;2024-02-23T14:49:07;17.00;41.00
80232;DHT22;74189;42.124;24.752;2024-02-23T14:51:33;17.00;41.10
80232;DHT22;74189;42.124;24.752;2024-02-23T14:54:01;16.90;41.40
80232;DHT22;74189;42.124;24.752;2024-02-23T14:56:30;16.80;41.80
80232;DHT22;74189;42.124;24.752;2024-02-23T14:58:56;16.70;41.90
80232;DHT22;74189;42.124;24.752;2024-02-23T15:01:22;16.60;42.00
80232;DHT22;74189;42.124;24.752;2024-02-23T15:03:49;16.70;41.90
80232;DHT22;74189;42.124;24.752;2024-02-23T15:06:15;16.70;41.90
80232;DHT22;74189;42.124;24.752;2024-02-23T15:08:41;16.70;41.90
80232;DHT22;74189;42.124;24.752;2024-02-23T15:11:10;16.50;42.40
80232;DHT22;74189;42.124;24.752;2024-02-23T15:13:37;16.60;41.90
80232;DHT22;74189;42.124;24.752;2024-02-23T15:16:03;16.60;42.30
80232;DHT22;74189;42.124;24.752;2024-02-23T15:18:32;16.50;42.50
80232;DHT22;74189;42.124;24.752;2024-02-23T15:20:59;16.60;42.40
80232;DHT22;74189;42.124;24.752;2024-02-23T15:23:25;16.50;42.70
80232;DHT22;74189;42.124;24.752;2024-02-23T15:25:51;16.40;42.50
80232;DHT22;74189;42.124;24.752;2024-02-23T15:28:19;16.40;43.10